sensor_id;sensor_type;location;lat;lon;timestamp;P1;durP1;ratioP1;P2;durP2;ratioP2
8279;SDS011;8335;42.646;23.380;2023-12-20T00:01:34;15.50;;;8.60;;
8279;SDS011;8335;42.646;23.380;2023-12-20T00:04:01;16.50;;;8.97;;
8279;SDS011;8335;42.646;23.380;2023-12-20T00:06:28;16.27;;;9.43;;
8279;SDS011;8335;42.646;23.380;2023-12-20T00:08:55;12.97;;;7.97;;
8279;SDS011;8335;42.646;23.380;2023-12-20T00:11:23;16.60;;;9.50;;
8279;SDS011;8335;42.646;23.380;2023-12-20T00:13:49;16.23;;;9.60;;
8279;SDS011;8335;42.646;23.380;2023-12-20T00:16:18;15.90;;;9.60;;
8279;SDS011;8335;42.646;23.380;2023-12-20T00:18:44;16.77;;;9.40;;
8279;SDS011;8335;42.646;23.380;2023-12-20T00:21:11;16.97;;;9.83;;
8279;SDS011;8335;42.646;23.380;2023-12-20T00:23:38;16.60;;;9.93;;
8279;SDS011;8335;42.646;23.380;2023-12-20T00:26:05;18.37;;;10.30;;
8279;SDS011;8335;42.646;23.380;2023-12-20T00:28:31;23.03;;;12.23;;
8279;SDS011;8335;42.646;23.380;2023-12-20T00:30:58;18.20;;;11.20;;
8279;SDS011;8335;42.646;23.380;2023-12-20T00:33:26;22.80;;;13.50;;
8279;SDS011;8335;42.646;23.380;2023-12-20T00:35:53;20.30;;;12.17;;
8279;SDS011;8335;42.646;23.380;2023-12-20T00:38:19;18.07;;;10.50;;
8279;SDS011;8335;42.646;23.380;2023-12-20T00:40:46;15.67;;;8.97;;
8279;SDS011;8335;42.646;23.380;2023-12-20T00:43:14;15.13;;;8.87;;
8279;SDS011;8335;42.646;23.380;2023-12-20T00:45:41;11.10;;;7.40;;
8279;SDS011;8335;42.646;23.380;2023-12-20T00:48:08;13.10;;;7.47;;
8279;SDS011;8335;42.646;23.380;2023-12-20T00:50:36;13.93;;;7.73;;
8279;SDS011;8335;42.646;23.380;2023-12-20T00:53:03;12.60;;;7.53;;
8279;SDS011;8335;42.646;23.380;2023-12-20T00:55:30;12.20;;;7.50;;
8279;SDS011;8335;42.646;23.380;2023-12-20T00:57:57;12.93;;;7.27;;
8279;SDS011;8335;42.646;23.380;2023-12-20T01:00:24;15.53;;;7.97;;
8279;SDS011;8335;42.646;23.380;2023-12-20T01:02:51;13.33;;;7.93;;
8279;SDS011;8335;42.646;23.380;2023-12-20T01:05:17;13.57;;;7.70;;
8279;SDS011;8335;42.646;23.380;2023-12-20T01:07:46;11.57;;;7.03;;
8279;SDS011;8335;42.646;23.380;2023-12-20T01:10:12;11.90;;;6.50;;
8279;SDS011;8335;42.646;23.380;2023-12-20T01:12:39;13.70;;;7.80;;
8279;SDS011;8335;42.646;23.380;2023-12-20T01:15:06;12.50;;;7.43;;
8279;SDS011;8335;42.646;23.380;2023-12-20T01:17:33;14.53;;;7.40;;
8279;SDS011;8335;42.646;23.380;2023-12-20T01:19:59;12.13;;;7.83;;
8279;SDS011;8335;42.646;23.380;2023-12-20T01:22:26;12.33;;;7.37;;
8279;SDS011;8335;42.646;23.380;2023-12-20T01:24:54;13.77;;;8.07;;
8279;SDS011;8335;42.646;23.380;2023-12-20T01:27:21;13.50;;;7.63;;
8279;SDS011;8335;42.646;23.380;2023-12-20T01:29:47;9.97;;;7.13;;
8279;SDS011;8335;42.646;23.380;2023-12-20T01:32:14;13.70;;;8.17;;
8279;SDS011;8335;42.646;23.380;2023-12-20T01:34:41;14.07;;;7.97;;
8279;SDS011;8335;42.646;23.380;2023-12-20T01:37:07;14.17;;;8.27;;
8279;SDS011;8335;42.646;23.380;2023-12-20T01:39:34;15.63;;;8.10;;
8279;SDS011;8335;42.646;23.380;2023-12-20T01:42:02;13.33;;;7.57;;
8279;SDS011;8335;42.646;23.380;2023-12-20T01:44:29;16.83;;;9.90;;
8279;SDS011;8335;42.646;23.380;2023-12-20T01:46:56;17.87;;;9.60;;
8279;SDS011;8335;42.646;23.380;2023-12-20T01:49:23;16.60;;;9.93;;
8279;SDS011;8335;42.646;23.380;2023-12-20T01:51:50;17.60;;;10.70;;
8279;SDS011;8335;42.646;23.380;2023-12-20T01:54:17;18.57;;;9.83;;
8279;SDS011;8335;42.646;23.380;2023-12-20T01:56:45;15.93;;;8.90;;
8279;SDS011;8335;42.646;23.380;2023-12-20T01:59:13;13.93;;;8.93;;
8279;SDS011;8335;42.646;23.380;2023-12-20T02:01:40;13.33;;;8.77;;
8279;SDS011;8335;42.646;23.380;2023-12-20T02:04:07;13.77;;;8.40;;
8279;SDS011;8335;42.646;23.380;2023-12-20T02:06:34;15.33;;;8.80;;
8279;SDS011;8335;42.646;23.380;2023-12-20T02:09:00;13.10;;;8.40;;
8279;SDS011;8335;42.646;23.380;2023-12-20T02:11:27;15.17;;;8.53;;
8279;SDS011;8335;42.646;23.380;2023-12-20T02:13:54;15.87;;;8.93;;
8279;SDS011;8335;42.646;23.380;2023-12-20T02:16:22;15.37;;;9.10;;
8279;SDS011;8335;42.646;23.380;2023-12-20T02:18:49;17.47;;;9.63;;
8279;SDS011;8335;42.646;23.380;2023-12-20T02:21:15;16.93;;;8.83;;
8279;SDS011;8335;42.646;23.380;2023-12-20T02:23:43;17.50;;;9.53;;
8279;SDS011;8335;42.646;23.380;2023-12-20T02:26:10;19.57;;;11.07;;
8279;SDS011;8335;42.646;23.380;2023-12-20T02:28:38;16.23;;;8.93;;
8279;SDS011;8335;42.646;23.380;2023-12-20T02:31:05;12.43;;;8.03;;
8279;SDS011;8335;42.646;23.380;2023-12-20T02:33:32;12.43;;;8.03;;
8279;SDS011;8335;42.646;23.380;2023-12-20T02:35:59;15.37;;;9.73;;
8279;SDS011;8335;42.646;23.380;2023-12-20T02:38:25;16.13;;;9.07;;
8279;SDS011;8335;42.646;23.380;2023-12-20T02:40:53;14.80;;;8.83;;
8279;SDS011;8335;42.646;23.380;2023-12-20T02:43:20;14.07;;;8.50;;
8279;SDS011;8335;42.646;23.380;2023-12-20T02:45:47;17.77;;;9.53;;
8279;SDS011;8335;42.646;23.380;2023-12-20T02:48:13;15.73;;;9.93;;
8279;SDS011;8335;42.646;23.380;2023-12-20T02:50:40;15.87;;;9.50;;
8279;SDS011;8335;42.646;23.380;2023-12-20T02:53:07;24.40;;;13.00;;
8279;SDS011;8335;42.646;23.380;2023-12-20T02:55:33;16.93;;;10.17;;
8279;SDS011;8335;42.646;23.380;2023-12-20T02:58:01;24.93;;;15.77;;
8279;SDS011;8335;42.646;23.380;2023-12-20T03:00:28;40.17;;;23.57;;
8279;SDS011;8335;42.646;23.380;2023-12-20T03:02:55;39.20;;;22.93;;
8279;SDS011;8335;42.646;23.380;2023-12-20T03:05:21;39.40;;;22.13;;
8279;SDS011;8335;42.646;23.380;2023-12-20T03:07:47;38.20;;;22.60;;
8279;SDS011;8335;42.646;23.380;2023-12-20T03:10:14;43.67;;;22.43;;
8279;SDS011;8335;42.646;23.380;2023-12-20T03:12:41;39.93;;;22.90;;
8279;SDS011;8335;42.646;23.380;2023-12-20T03:15:09;43.50;;;25.93;;
8279;SDS011;8335;42.646;23.380;2023-12-20T03:17:36;45.03;;;24.43;;
8279;SDS011;8335;42.646;23.380;2023-12-20T03:20:03;49.93;;;28.43;;
8279;SDS011;8335;42.646;23.380;2023-12-20T03:22:30;50.03;;;28.47;;
8279;SDS011;8335;42.646;23.380;2023-12-20T03:24:57;52.90;;;29.57;;
8279;SDS011;8335;42.646;23.380;2023-12-20T03:27:23;49.57;;;27.40;;
8279;SDS011;8335;42.646;23.380;2023-12-20T03:29:50;50.63;;;28.10;;
8279;SDS011;8335;42.646;23.380;2023-12-20T03:32:18;49.70;;;29.97;;
8279;SDS011;8335;42.646;23.380;2023-12-20T03:34:45;52.40;;;30.60;;
8279;SDS011;8335;42.646;23.380;2023-12-20T03:37:12;58.40;;;31.90;;
8279;SDS011;8335;42.646;23.380;2023-12-20T03:39:38;63.83;;;33.33;;
8279;SDS011;8335;42.646;23.380;2023-12-20T03:42:05;51.57;;;29.90;;
8279;SDS011;8335;42.646;23.380;2023-12-20T03:44:32;54.30;;;29.43;;
8279;SDS011;8335;42.646;23.380;2023-12-20T03:46:59;48.93;;;28.47;;
8279;SDS011;8335;42.646;23.380;2023-12-20T03:49:27;50.43;;;27.80;;
8279;SDS011;8335;42.646;23.380;2023-12-20T03:51:53;51.17;;;27.63;;
8279;SDS011;8335;42.646;23.380;2023-12-20T03:54:20;45.30;;;24.90;;
8279;SDS011;8335;42.646;23.380;2023-12-20T03:56:47;36.97;;;19.73;;
8279;SDS011;8335;42.646;23.380;2023-12-20T03:59:13;24.77;;;14.93;;
8279;SDS011;8335;42.646;23.380;2023-12-20T04:01:42;23.67;;;11.53;;
8279;SDS011;8335;42.646;23.380;2023-12-20T04:04:09;24.20;;;13.03;;
8279;SDS011;8335;42.646;23.380;2023-12-20T04:06:37;19.23;;;9.40;;
8279;SDS011;8335;42.646;23.380;2023-12-20T04:09:04;19.23;;;10.53;;
8279;SDS011;8335;42.646;23.380;2023-12-20T04:11:31;14.77;;;8.87;;
8279;SDS011;8335;42.646;23.380;2023-12-20T04:13:58;15.87;;;8.57;;
8279;SDS011;8335;42.646;23.380;2023-12-20T04:16:25;18.03;;;8.80;;
8279;SDS011;8335;42.646;23.380;2023-12-20T04:18:52;12.03;;;7.97;;
8279;SDS011;8335;42.646;23.380;2023-12-20T04:21:19;15.20;;;8.47;;
8279;SDS011;8335;42.646;23.380;2023-12-20T04:23:47;16.23;;;7.93;;
8279;SDS011;8335;42.646;23.380;2023-12-20T04:26:13;13.53;;;7.83;;
8279;SDS011;8335;42.646;23.380;2023-12-20T04:28:40;15.67;;;7.83;;
8279;SDS011;8335;42.646;23.380;2023-12-20T04:31:07;13.90;;;7.80;;
8279;SDS011;8335;42.646;23.380;2023-12-20T04:33:33;14.20;;;8.27;;
8279;SDS011;8335;42.646;23.380;2023-12-20T04:36:00;12.90;;;7.57;;
8279;SDS011;8335;42.646;23.380;2023-12-20T04:38:27;14.10;;;7.47;;
8279;SDS011;8335;42.646;23.380;2023-12-20T04:40:55;12.43;;;6.70;;
8279;SDS011;8335;42.646;23.380;2023-12-20T04:43:22;12.60;;;7.70;;
8279;SDS011;8335;42.646;23.380;2023-12-20T04:45:48;10.43;;;7.13;;
8279;SDS011;8335;42.646;23.380;2023-12-20T04:48:15;13.30;;;7.00;;
8279;SDS011;8335;42.646;23.380;2023-12-20T04:50:42;12.87;;;7.20;;
8279;SDS011;8335;42.646;23.380;2023-12-20T04:53:08;20.53;;;10.83;;
8279;SDS011;8335;42.646;23.380;2023-12-20T04:55:35;22.93;;;12.83;;
8279;SDS011;8335;42.646;23.380;2023-12-20T04:58:03;37.73;;;21.73;;
8279;SDS011;8335;42.646;23.380;2023-12-20T05:00:30;52.57;;;27.80;;
8279;SDS011;8335;42.646;23.380;2023-12-20T05:02:57;47.20;;;24.83;;
8279;SDS011;8335;42.646;23.380;2023-12-20T05:05:23;58.17;;;31.40;;
8279;SDS011;8335;42.646;23.380;2023-12-20T05:07:50;60.70;;;32.03;;
8279;SDS011;8335;42.646;23.380;2023-12-20T05:10:17;50.47;;;27.90;;
8279;SDS011;8335;42.646;23.380;2023-12-20T05:12:44;64.70;;;31.63;;
8279;SDS011;8335;42.646;23.380;2023-12-20T05:15:12;99.53;;;32.40;;
8279;SDS011;8335;42.646;23.380;2023-12-20T05:17:39;111.03;;;33.17;;
8279;SDS011;8335;42.646;23.380;2023-12-20T05:20:06;106.27;;;34.87;;
8279;SDS011;8335;42.646;23.380;2023-12-20T05:22:34;93.40;;;33.27;;
8279;SDS011;8335;42.646;23.380;2023-12-20T05:25:00;99.07;;;35.80;;
8279;SDS011;8335;42.646;23.380;2023-12-20T05:27:27;80.33;;;28.37;;
8279;SDS011;8335;42.646;23.380;2023-12-20T05:29:54;101.70;;;30.43;;
8279;SDS011;8335;42.646;23.380;2023-12-20T05:32:24;73.70;;;26.83;;
8279;SDS011;8335;42.646;23.380;2023-12-20T05:34:50;86.23;;;27.27;;
8279;SDS011;8335;42.646;23.380;2023-12-20T05:37:17;93.47;;;29.80;;
8279;SDS011;8335;42.646;23.380;2023-12-20T05:39:44;96.27;;;28.03;;
8279;SDS011;8335;42.646;23.380;2023-12-20T05:42:10;82.13;;;27.83;;
8279;SDS011;8335;42.646;23.380;2023-12-20T05:44:37;88.27;;;26.73;;
8279;SDS011;8335;42.646;23.380;2023-12-20T05:47:04;69.53;;;26.27;;
8279;SDS011;8335;42.646;23.380;2023-12-20T05:49:32;58.50;;;26.60;;
8279;SDS011;8335;42.646;23.380;2023-12-20T05:51:58;61.60;;;26.40;;
8279;SDS011;8335;42.646;23.380;2023-12-20T05:54:25;64.23;;;25.43;;
8279;SDS011;8335;42.646;23.380;2023-12-20T05:56:52;67.17;;;26.43;;
8279;SDS011;8335;42.646;23.380;2023-12-20T05:59:18;67.57;;;25.27;;
8279;SDS011;8335;42.646;23.380;2023-12-20T06:01:45;62.77;;;25.20;;
8279;SDS011;8335;42.646;23.380;2023-12-20T06:04:12;66.53;;;24.60;;
8279;SDS011;8335;42.646;23.380;2023-12-20T06:06:43;57.47;;;22.87;;
8279;SDS011;8335;42.646;23.380;2023-12-20T06:09:10;73.00;;;22.30;;
8279;SDS011;8335;42.646;23.380;2023-12-20T06:11:37;56.40;;;20.63;;
8279;SDS011;8335;42.646;23.380;2023-12-20T06:14:04;61.33;;;21.47;;
8279;SDS011;8335;42.646;23.380;2023-12-20T06:16:31;52.80;;;22.03;;
8279;SDS011;8335;42.646;23.380;2023-12-20T06:18:57;55.97;;;21.27;;
8279;SDS011;8335;42.646;23.380;2023-12-20T06:21:24;58.23;;;21.03;;
8279;SDS011;8335;42.646;23.380;2023-12-20T06:23:52;54.80;;;21.33;;
8279;SDS011;8335;42.646;23.380;2023-12-20T06:26:19;56.87;;;22.67;;
8279;SDS011;8335;42.646;23.380;2023-12-20T06:28:49;54.10;;;22.03;;
8279;SDS011;8335;42.646;23.380;2023-12-20T06:31:15;45.07;;;21.60;;
8279;SDS011;8335;42.646;23.380;2023-12-20T06:33:42;48.13;;;22.13;;
8279;SDS011;8335;42.646;23.380;2023-12-20T06:36:10;52.60;;;21.37;;
8279;SDS011;8335;42.646;23.380;2023-12-20T06:38:38;46.83;;;22.70;;
8279;SDS011;8335;42.646;23.380;2023-12-20T06:41:06;43.80;;;21.10;;
8279;SDS011;8335;42.646;23.380;2023-12-20T06:43:33;42.90;;;22.00;;
8279;SDS011;8335;42.646;23.380;2023-12-20T06:46:00;46.13;;;21.23;;
8279;SDS011;8335;42.646;23.380;2023-12-20T06:48:27;41.83;;;21.50;;
8279;SDS011;8335;42.646;23.380;2023-12-20T06:50:53;49.43;;;22.60;;
8279;SDS011;8335;42.646;23.380;2023-12-20T06:53:20;44.83;;;21.00;;
8279;SDS011;8335;42.646;23.380;2023-12-20T06:55:47;49.93;;;21.50;;
8279;SDS011;8335;42.646;23.380;2023-12-20T06:58:15;43.40;;;22.03;;
8279;SDS011;8335;42.646;23.380;2023-12-20T07:00:41;42.20;;;22.40;;
8279;SDS011;8335;42.646;23.380;2023-12-20T07:03:08;44.63;;;23.57;;
8279;SDS011;8335;42.646;23.380;2023-12-20T07:05:35;42.50;;;21.13;;
8279;SDS011;8335;42.646;23.380;2023-12-20T07:08:02;41.10;;;21.23;;
8279;SDS011;8335;42.646;23.380;2023-12-20T07:10:29;37.43;;;21.60;;
8279;SDS011;8335;42.646;23.380;2023-12-20T07:12:56;35.27;;;19.40;;
8279;SDS011;8335;42.646;23.380;2023-12-20T07:15:24;30.37;;;17.67;;
8279;SDS011;8335;42.646;23.380;2023-12-20T07:17:52;26.93;;;15.60;;
8279;SDS011;8335;42.646;23.380;2023-12-20T07:20:18;25.23;;;15.17;;
8279;SDS011;8335;42.646;23.380;2023-12-20T07:22:45;27.33;;;16.50;;
8279;SDS011;8335;42.646;23.380;2023-12-20T07:25:12;29.97;;;16.93;;
8279;SDS011;8335;42.646;23.380;2023-12-20T07:27:38;27.63;;;17.50;;
8279;SDS011;8335;42.646;23.380;2023-12-20T07:30:06;29.43;;;19.40;;
8279;SDS011;8335;42.646;23.380;2023-12-20T07:32:34;28.70;;;18.17;;
8279;SDS011;8335;42.646;23.380;2023-12-20T07:35:01;35.10;;;21.23;;
8279;SDS011;8335;42.646;23.380;2023-12-20T07:37:28;40.70;;;22.33;;
8279;SDS011;8335;42.646;23.380;2023-12-20T07:39:55;37.60;;;21.43;;
8279;SDS011;8335;42.646;23.380;2023-12-20T07:42:21;28.67;;;17.17;;
8279;SDS011;8335;42.646;23.380;2023-12-20T07:44:48;38.00;;;19.70;;
8279;SDS011;8335;42.646;23.380;2023-12-20T07:47:17;35.23;;;19.33;;
8279;SDS011;8335;42.646;23.380;2023-12-20T07:49:48;36.43;;;20.00;;
8279;SDS011;8335;42.646;23.380;2023-12-20T07:52:16;58.40;;;25.97;;
8279;SDS011;8335;42.646;23.380;2023-12-20T07:54:43;61.37;;;28.57;;
8279;SDS011;8335;42.646;23.380;2023-12-20T07:57:10;77.37;;;31.27;;
8279;SDS011;8335;42.646;23.380;2023-12-20T07:59:38;67.60;;;28.67;;
8279;SDS011;8335;42.646;23.380;2023-12-20T08:02:04;55.77;;;26.67;;
8279;SDS011;8335;42.646;23.380;2023-12-20T08:04:32;64.93;;;27.70;;
8279;SDS011;8335;42.646;23.380;2023-12-20T08:07:00;70.33;;;29.30;;
8279;SDS011;8335;42.646;23.380;2023-12-20T08:09:27;64.60;;;28.93;;
8279;SDS011;8335;42.646;23.380;2023-12-20T08:11:53;63.57;;;28.63;;
8279;SDS011;8335;42.646;23.380;2023-12-20T08:14:20;65.60;;;29.90;;
8279;SDS011;8335;42.646;23.380;2023-12-20T08:16:47;71.83;;;31.00;;
8279;SDS011;8335;42.646;23.380;2023-12-20T08:19:14;77.03;;;33.73;;
8279;SDS011;8335;42.646;23.380;2023-12-20T08:21:40;92.77;;;38.20;;
8279;SDS011;8335;42.646;23.380;2023-12-20T08:24:08;82.27;;;36.63;;
8279;SDS011;8335;42.646;23.380;2023-12-20T08:26:35;73.07;;;34.93;;
8279;SDS011;8335;42.646;23.380;2023-12-20T08:29:02;84.20;;;36.47;;
8279;SDS011;8335;42.646;23.380;2023-12-20T08:31:28;75.70;;;35.10;;
8279;SDS011;8335;42.646;23.380;2023-12-20T08:33:55;77.37;;;35.30;;
8279;SDS011;8335;42.646;23.380;2023-12-20T08:36:22;69.60;;;33.70;;
8279;SDS011;8335;42.646;23.380;2023-12-20T08:38:49;69.23;;;33.50;;
8279;SDS011;8335;42.646;23.380;2023-12-20T08:41:17;69.20;;;32.50;;
8279;SDS011;8335;42.646;23.380;2023-12-20T08:43:44;69.87;;;33.53;;
8279;SDS011;8335;42.646;23.380;2023-12-20T08:46:11;75.40;;;34.53;;
8279;SDS011;8335;42.646;23.380;2023-12-20T08:48:37;65.90;;;30.60;;
8279;SDS011;8335;42.646;23.380;2023-12-20T08:51:04;59.53;;;29.17;;
8279;SDS011;8335;42.646;23.380;2023-12-20T08:53:32;58.83;;;28.50;;
8279;SDS011;8335;42.646;23.380;2023-12-20T08:55:59;60.97;;;30.57;;
8279;SDS011;8335;42.646;23.380;2023-12-20T08:58:28;55.00;;;29.53;;
8279;SDS011;8335;42.646;23.380;2023-12-20T09:00:55;59.97;;;28.77;;
8279;SDS011;8335;42.646;23.380;2023-12-20T09:03:22;66.13;;;31.03;;
8279;SDS011;8335;42.646;23.380;2023-12-20T09:05:49;70.30;;;33.30;;
8279;SDS011;8335;42.646;23.380;2023-12-20T09:08:16;79.47;;;33.80;;
8279;SDS011;8335;42.646;23.380;2023-12-20T09:10:42;71.63;;;30.40;;
8279;SDS011;8335;42.646;23.380;2023-12-20T09:13:09;70.03;;;31.03;;
8279;SDS011;8335;42.646;23.380;2023-12-20T09:15:37;73.53;;;33.47;;
8279;SDS011;8335;42.646;23.380;2023-12-20T09:18:04;70.40;;;32.73;;
8279;SDS011;8335;42.646;23.380;2023-12-20T09:20:31;68.83;;;32.20;;
8279;SDS011;8335;42.646;23.380;2023-12-20T09:22:58;70.53;;;31.83;;
8279;SDS011;8335;42.646;23.380;2023-12-20T09:25:24;73.00;;;31.67;;
8279;SDS011;8335;42.646;23.380;2023-12-20T09:27:52;73.07;;;30.47;;
8279;SDS011;8335;42.646;23.380;2023-12-20T09:30:19;67.30;;;30.80;;
8279;SDS011;8335;42.646;23.380;2023-12-20T09:32:47;63.83;;;30.87;;
8279;SDS011;8335;42.646;23.380;2023-12-20T09:35:13;70.47;;;32.23;;
8279;SDS011;8335;42.646;23.380;2023-12-20T09:37:40;75.97;;;33.20;;
8279;SDS011;8335;42.646;23.380;2023-12-20T09:40:11;83.10;;;34.97;;
8279;SDS011;8335;42.646;23.380;2023-12-20T09:42:39;77.93;;;32.23;;
8279;SDS011;8335;42.646;23.380;2023-12-20T09:45:14;78.97;;;34.40;;
8279;SDS011;8335;42.646;23.380;2023-12-20T09:47:41;75.47;;;33.17;;
8279;SDS011;8335;42.646;23.380;2023-12-20T09:50:14;83.17;;;35.37;;
8279;SDS011;8335;42.646;23.380;2023-12-20T09:52:41;76.67;;;34.00;;
8279;SDS011;8335;42.646;23.380;2023-12-20T09:55:09;82.13;;;34.50;;
8279;SDS011;8335;42.646;23.380;2023-12-20T09:57:36;69.33;;;34.77;;
8279;SDS011;8335;42.646;23.380;2023-12-20T10:00:04;73.30;;;35.57;;
8279;SDS011;8335;42.646;23.380;2023-12-20T10:02:32;79.03;;;35.50;;
8279;SDS011;8335;42.646;23.380;2023-12-20T10:05:00;76.03;;;36.37;;
8279;SDS011;8335;42.646;23.380;2023-12-20T10:07:29;74.43;;;35.77;;
8279;SDS011;8335;42.646;23.380;2023-12-20T10:09:56;73.33;;;35.03;;
8279;SDS011;8335;42.646;23.380;2023-12-20T10:12:23;64.47;;;33.10;;
8279;SDS011;8335;42.646;23.380;2023-12-20T10:14:50;71.93;;;34.77;;
8279;SDS011;8335;42.646;23.380;2023-12-20T10:17:17;79.70;;;37.47;;
8279;SDS011;8335;42.646;23.380;2023-12-20T10:19:43;72.63;;;34.07;;
8279;SDS011;8335;42.646;23.380;2023-12-20T10:22:10;73.90;;;35.33;;
8279;SDS011;8335;42.646;23.380;2023-12-20T10:24:38;68.60;;;34.03;;
8279;SDS011;8335;42.646;23.380;2023-12-20T10:27:06;72.77;;;34.27;;
8279;SDS011;8335;42.646;23.380;2023-12-20T10:29:34;73.57;;;35.53;;
8279;SDS011;8335;42.646;23.380;2023-12-20T10:32:14;74.50;;;35.13;;
8279;SDS011;8335;42.646;23.380;2023-12-20T10:34:49;69.23;;;34.97;;
8279;SDS011;8335;42.646;23.380;2023-12-20T10:37:15;65.80;;;33.80;;
8279;SDS011;8335;42.646;23.380;2023-12-20T10:39:44;61.63;;;32.63;;
8279;SDS011;8335;42.646;23.380;2023-12-20T10:42:16;68.80;;;33.60;;
8279;SDS011;8335;42.646;23.380;2023-12-20T10:44:44;67.47;;;33.47;;
8279;SDS011;8335;42.646;23.380;2023-12-20T10:47:11;69.27;;;33.70;;
8279;SDS011;8335;42.646;23.380;2023-12-20T10:49:39;65.80;;;34.00;;
8279;SDS011;8335;42.646;23.380;2023-12-20T10:52:06;63.93;;;33.30;;
8279;SDS011;8335;42.646;23.380;2023-12-20T10:54:35;60.63;;;32.23;;
8279;SDS011;8335;42.646;23.380;2023-12-20T10:57:03;66.03;;;33.57;;
8279;SDS011;8335;42.646;23.380;2023-12-20T10:59:32;63.47;;;32.10;;
8279;SDS011;8335;42.646;23.380;2023-12-20T11:01:59;64.20;;;34.80;;
8279;SDS011;8335;42.646;23.380;2023-12-20T11:04:31;66.87;;;34.40;;
8279;SDS011;8335;42.646;23.380;2023-12-20T11:07:07;71.93;;;35.57;;
8279;SDS011;8335;42.646;23.380;2023-12-20T11:09:45;70.73;;;35.60;;
8279;SDS011;8335;42.646;23.380;2023-12-20T11:12:22;71.03;;;35.30;;
8279;SDS011;8335;42.646;23.380;2023-12-20T11:14:54;67.83;;;34.60;;
8279;SDS011;8335;42.646;23.380;2023-12-20T11:17:22;67.43;;;35.40;;
8279;SDS011;8335;42.646;23.380;2023-12-20T11:20:08;71.70;;;34.93;;
8279;SDS011;8335;42.646;23.380;2023-12-20T11:22:37;70.10;;;35.17;;
8279;SDS011;8335;42.646;23.380;2023-12-20T11:25:07;67.40;;;36.43;;
8279;SDS011;8335;42.646;23.380;2023-12-20T11:27:37;65.63;;;34.93;;
8279;SDS011;8335;42.646;23.380;2023-12-20T11:30:07;64.73;;;33.90;;
8279;SDS011;8335;42.646;23.380;2023-12-20T11:32:35;65.77;;;33.73;;
8279;SDS011;8335;42.646;23.380;2023-12-20T11:35:16;66.47;;;34.10;;
8279;SDS011;8335;42.646;23.380;2023-12-20T11:37:45;62.40;;;34.63;;
8279;SDS011;8335;42.646;23.380;2023-12-20T11:40:13;58.17;;;32.17;;
8279;SDS011;8335;42.646;23.380;2023-12-20T11:42:43;59.63;;;31.40;;
8279;SDS011;8335;42.646;23.380;2023-12-20T11:45:11;57.83;;;31.53;;
8279;SDS011;8335;42.646;23.380;2023-12-20T11:47:41;51.57;;;28.53;;
8279;SDS011;8335;42.646;23.380;2023-12-20T11:50:09;61.57;;;31.40;;
8279;SDS011;8335;42.646;23.380;2023-12-20T11:52:36;57.67;;;31.03;;
8279;SDS011;8335;42.646;23.380;2023-12-20T11:55:03;61.40;;;32.20;;
8279;SDS011;8335;42.646;23.380;2023-12-20T11:57:30;72.20;;;35.33;;
8279;SDS011;8335;42.646;23.380;2023-12-20T11:59:59;72.77;;;31.47;;
8279;SDS011;8335;42.646;23.380;2023-12-20T12:02:25;73.40;;;38.27;;
8279;SDS011;8335;42.646;23.380;2023-12-20T12:04:52;80.10;;;38.17;;
8279;SDS011;8335;42.646;23.380;2023-12-20T12:07:20;79.47;;;37.17;;
8279;SDS011;8335;42.646;23.380;2023-12-20T12:09:47;72.67;;;34.80;;
8279;SDS011;8335;42.646;23.380;2023-12-20T12:12:14;69.57;;;36.77;;
8279;SDS011;8335;42.646;23.380;2023-12-20T12:14:41;69.37;;;35.23;;
8279;SDS011;8335;42.646;23.380;2023-12-20T12:17:11;79.57;;;37.77;;
8279;SDS011;8335;42.646;23.380;2023-12-20T12:19:38;79.00;;;38.87;;
8279;SDS011;8335;42.646;23.380;2023-12-20T12:22:05;83.80;;;39.60;;
8279;SDS011;8335;42.646;23.380;2023-12-20T12:24:37;78.73;;;37.87;;
8279;SDS011;8335;42.646;23.380;2023-12-20T12:27:05;80.10;;;39.53;;
8279;SDS011;8335;42.646;23.380;2023-12-20T12:29:33;80.83;;;36.30;;
8279;SDS011;8335;42.646;23.380;2023-12-20T12:32:00;74.50;;;36.33;;
8279;SDS011;8335;42.646;23.380;2023-12-20T12:34:28;75.20;;;36.03;;
8279;SDS011;8335;42.646;23.380;2023-12-20T12:36:55;69.20;;;35.30;;
8279;SDS011;8335;42.646;23.380;2023-12-20T12:39:22;68.43;;;33.20;;
8279;SDS011;8335;42.646;23.380;2023-12-20T12:41:50;69.50;;;35.83;;
8279;SDS011;8335;42.646;23.380;2023-12-20T12:44:16;70.37;;;35.03;;
8279;SDS011;8335;42.646;23.380;2023-12-20T12:46:44;64.87;;;31.40;;
8279;SDS011;8335;42.646;23.380;2023-12-20T12:49:11;57.73;;;29.93;;
8279;SDS011;8335;42.646;23.380;2023-12-20T12:51:39;57.80;;;28.30;;
8279;SDS011;8335;42.646;23.380;2023-12-20T12:54:05;57.43;;;29.27;;
8279;SDS011;8335;42.646;23.380;2023-12-20T12:56:32;61.07;;;31.83;;
8279;SDS011;8335;42.646;23.380;2023-12-20T12:58:59;68.70;;;32.43;;
8279;SDS011;8335;42.646;23.380;2023-12-20T13:01:26;67.80;;;33.33;;
8279;SDS011;8335;42.646;23.380;2023-12-20T13:03:52;66.67;;;32.37;;
8279;SDS011;8335;42.646;23.380;2023-12-20T13:06:19;69.47;;;31.00;;
8279;SDS011;8335;42.646;23.380;2023-12-20T13:08:47;71.07;;;32.80;;
8279;SDS011;8335;42.646;23.380;2023-12-20T13:11:14;71.20;;;31.83;;
8279;SDS011;8335;42.646;23.380;2023-12-20T13:13:41;73.87;;;31.97;;
8279;SDS011;8335;42.646;23.380;2023-12-20T13:16:07;69.93;;;32.07;;
8279;SDS011;8335;42.646;23.380;2023-12-20T13:18:34;71.53;;;33.10;;
8279;SDS011;8335;42.646;23.380;2023-12-20T13:21:01;71.50;;;32.23;;
8279;SDS011;8335;42.646;23.380;2023-12-20T13:23:28;74.47;;;32.37;;
8279;SDS011;8335;42.646;23.380;2023-12-20T13:25:56;75.90;;;34.63;;
8279;SDS011;8335;42.646;23.380;2023-12-20T13:28:22;73.30;;;33.63;;
8279;SDS011;8335;42.646;23.380;2023-12-20T13:30:49;80.80;;;34.33;;
8279;SDS011;8335;42.646;23.380;2023-12-20T13:33:16;72.27;;;32.87;;
8279;SDS011;8335;42.646;23.380;2023-12-20T13:35:42;80.67;;;35.07;;
8279;SDS011;8335;42.646;23.380;2023-12-20T13:38:09;76.10;;;33.73;;
8279;SDS011;8335;42.646;23.380;2023-12-20T13:40:36;73.23;;;33.03;;
8279;SDS011;8335;42.646;23.380;2023-12-20T13:43:04;76.80;;;32.00;;
8279;SDS011;8335;42.646;23.380;2023-12-20T13:45:31;72.40;;;32.77;;
8279;SDS011;8335;42.646;23.380;2023-12-20T13:47:58;73.67;;;35.70;;
8279;SDS011;8335;42.646;23.380;2023-12-20T13:50:24;72.27;;;32.03;;
8279;SDS011;8335;42.646;23.380;2023-12-20T13:52:52;69.13;;;31.37;;
8279;SDS011;8335;42.646;23.380;2023-12-20T13:55:19;70.80;;;31.63;;
8279;SDS011;8335;42.646;23.380;2023-12-20T13:57:47;73.97;;;32.70;;
8279;SDS011;8335;42.646;23.380;2023-12-20T14:00:15;82.30;;;35.23;;
8279;SDS011;8335;42.646;23.380;2023-12-20T14:02:42;78.03;;;33.57;;
8279;SDS011;8335;42.646;23.380;2023-12-20T14:05:10;77.90;;;33.40;;
8279;SDS011;8335;42.646;23.380;2023-12-20T14:07:36;87.40;;;34.13;;
8279;SDS011;8335;42.646;23.380;2023-12-20T14:10:03;80.00;;;35.53;;
8279;SDS011;8335;42.646;23.380;2023-12-20T14:12:31;79.63;;;34.60;;
8279;SDS011;8335;42.646;23.380;2023-12-20T14:15:01;75.60;;;34.47;;
8279;SDS011;8335;42.646;23.380;2023-12-20T14:17:29;79.40;;;36.47;;
8279;SDS011;8335;42.646;23.380;2023-12-20T14:19:56;84.83;;;36.33;;
8279;SDS011;8335;42.646;23.380;2023-12-20T14:22:23;81.20;;;36.37;;
8279;SDS011;8335;42.646;23.380;2023-12-20T14:24:50;73.53;;;33.20;;
8279;SDS011;8335;42.646;23.380;2023-12-20T14:27:17;83.40;;;35.33;;
8279;SDS011;8335;42.646;23.380;2023-12-20T14:29:47;87.97;;;37.53;;
8279;SDS011;8335;42.646;23.380;2023-12-20T14:32:14;98.10;;;38.27;;
8279;SDS011;8335;42.646;23.380;2023-12-20T14:34:42;91.40;;;37.90;;
8279;SDS011;8335;42.646;23.380;2023-12-20T14:37:09;97.93;;;39.87;;
8279;SDS011;8335;42.646;23.380;2023-12-20T14:39:35;97.93;;;39.97;;